createdAt,value
2019-02-11T00:00:32.434Z,97557.73
2019-02-11T00:03:00.431Z,97564.27
2019-02-11T00:05:28.836Z,97548.64
2019-02-11T00:07:57.881Z,97566.34
2019-02-11T00:10:27.931Z,97583.65
2019-02-11T00:12:57.205Z,97584.98
2019-02-11T00:15:27.060Z,97590.80
2019-02-11T00:17:56.791Z,97587.72
2019-02-11T00:20:26.375Z,97594.91
2019-02-11T00:22:55.521Z,97600.02
2019-02-11T00:25:24.662Z,97605.09
2019-02-11T00:27:54.041Z,97593.69
2019-02-11T00:30:23.173Z,97594.75
2019-02-11T00:32:53.311Z,97594.75
2019-02-11T00:35:23.071Z,97589.41
2019-02-11T00:37:52.526Z,97582.27
2019-02-11T00:40:21.979Z,97575.84
2019-02-11T00:42:51.789Z,97578.52
2019-02-11T00:45:21.054Z,97578.52
2019-02-11T00:47:50.805Z,97579.84
2019-02-11T00:50:20.257Z,97573.00
2019-02-11T00:52:49.394Z,97573.00
2019-02-11T00:55:18.802Z,97567.61
2019-02-11T00:57:48.614Z,97564.53
2019-02-11T01:00:17.495Z,97569.05
2019-02-11T01:02:46.618Z,97569.05
2019-02-11T01:05:15.180Z,97572.54
2019-02-11T01:07:43.418Z,97589.00
2019-02-11T01:10:11.606Z,97595.48
2019-02-11T01:12:39.682Z,97605.14
2019-02-11T01:15:10.520Z,97610.99
2019-02-11T01:17:38.516Z,97638.73
2019-02-11T01:20:09.860Z,97638.73
2019-02-11T01:22:37.573Z,97628.08
2019-02-11T01:25:06.516Z,97640.80
2019-02-11T01:27:34.894Z,97646.45
2019-02-11T01:30:04.160Z,97646.40
2019-02-11T01:32:32.762Z,97639.55
2019-02-11T01:35:00.923Z,97605.00
2019-02-11T01:37:29.072Z,97658.97
2019-02-11T01:39:57.509Z,97661.11
2019-02-11T01:42:25.535Z,97669.97
2019-02-11T01:44:53.836Z,97685.75
2019-02-11T01:47:21.677Z,97684.91
2019-02-11T01:49:49.619Z,97682.72
2019-02-11T01:52:17.370Z,97695.00
2019-02-11T01:54:45.525Z,97693.23
2019-02-11T01:57:13.191Z,97693.23
2019-02-11T01:59:42.419Z,97696.41
2019-02-11T02:02:10.442Z,97694.23
2019-02-11T02:04:38.098Z,97695.61
2019-02-11T02:07:05.957Z,97695.61
2019-02-11T02:09:34.646Z,97705.19
2019-02-11T02:12:02.296Z,97704.73
2019-02-11T02:14:30.421Z,97701.46
2019-02-11T02:17:00.812Z,97708.98
2019-02-11T02:19:29.026Z,97693.36
2019-02-11T02:21:57.049Z,97693.36
2019-02-11T02:24:24.723Z,97717.78
2019-02-11T02:26:53.287Z,97719.11
2019-02-11T02:29:21.256Z,97718.34
2019-02-11T02:31:49.728Z,97724.72
2019-02-11T02:34:17.944Z,97726.86
2019-02-11T02:36:46.031Z,97727.95
2019-02-11T02:39:14.266Z,97743.38
2019-02-11T02:41:42.719Z,97733.56
2019-02-11T02:44:11.380Z,97733.28
2019-02-11T02:46:39.898Z,97742.61
2019-02-11T02:49:09.017Z,97749.23
2019-02-11T02:51:37.375Z,97745.48
2019-02-11T02:54:05.609Z,97755.61
2019-02-11T02:56:33.864Z,97756.17
2019-02-11T02:59:02.227Z,97759.89
2019-02-11T03:01:30.677Z,97752.42
2019-02-11T03:03:59.347Z,97767.08
2019-02-11T03:06:28.062Z,97777.49
2019-02-11T03:08:56.340Z,97776.16
2019-02-11T03:11:24.615Z,97768.03
2019-02-11T03:13:53.230Z,97788.16
2019-02-11T03:16:22.115Z,97796.70
2019-02-11T03:18:50.808Z,97792.43
2019-02-11T03:21:19.902Z,97802.28
2019-02-11T03:23:48.749Z,97810.59
2019-02-11T03:26:17.548Z,97828.47
2019-02-11T03:28:45.560Z,97830.33
2019-02-11T03:31:13.983Z,97837.48
2019-02-11T03:33:42.197Z,97836.50
2019-02-11T03:36:10.181Z,97834.46
2019-02-11T03:38:38.399Z,97834.46
2019-02-11T03:41:06.290Z,97846.35
2019-02-11T03:43:34.136Z,97859.70
2019-02-11T03:46:02.122Z,97855.71
2019-02-11T03:48:31.398Z,97863.17
2019-02-11T03:50:59.188Z,97858.16
2019-02-11T03:53:27.500Z,97862.13
2019-02-11T03:55:56.146Z,97857.11
2019-02-11T03:58:25.169Z,97860.58
2019-02-11T04:00:54.373Z,97866.18
2019-02-11T04:03:22.270Z,97870.70
2019-02-11T04:05:50.353Z,97876.00
2019-02-11T04:08:18.755Z,97877.92
2019-02-11T04:10:46.655Z,97877.92
2019-02-11T04:13:14.912Z,97882.22
2019-02-11T04:15:43.121Z,97882.22
2019-02-11T04:18:11.171Z,97893.93
2019-02-11T04:20:40.204Z,97889.66
2019-02-11T04:23:08.188Z,97878.48
2019-02-11T04:25:36.437Z,97899.81
2019-02-11T04:28:04.784Z,97899.81
2019-02-11T04:30:33.153Z,97905.14
2019-02-11T04:33:01.058Z,97902.47
2019-02-11T04:35:29.133Z,97907.52
2019-02-11T04:37:57.948Z,97914.74
2019-02-11T04:40:26.193Z,97902.23
2019-02-11T04:42:54.710Z,97937.88
2019-02-11T04:45:23.060Z,97937.10
2019-02-11T04:47:50.961Z,97939.48
2019-02-11T04:50:18.804Z,97941.10
2019-02-11T04:52:46.867Z,97952.55
2019-02-11T04:55:14.881Z,97961.35
2019-02-11T04:57:43.198Z,97964.81
2019-02-11T05:00:12.627Z,97969.09
2019-02-11T05:02:40.616Z,97970.42
2019-02-11T05:05:08.992Z,97975.22
2019-02-11T05:07:37.334Z,97976.55
2019-02-11T05:10:08.356Z,97983.75
2019-02-11T05:12:36.596Z,97990.66
2019-02-11T05:15:05.921Z,97994.37
2019-02-11T05:17:35.050Z,97989.06
2019-02-11T05:20:03.484Z,97988.53
2019-02-11T05:22:32.164Z,97996.25
2019-02-11T05:25:01.574Z,97997.03
2019-02-11T05:27:29.602Z,98005.56
2019-02-11T05:29:57.481Z,98003.19
2019-02-11T05:32:27.116Z,98020.50
2019-02-11T05:34:55.266Z,98020.50
2019-02-11T05:37:23.476Z,98021.30
2019-02-11T05:39:51.540Z,98021.30
2019-02-11T05:42:19.875Z,98031.97
2019-02-11T05:44:54.019Z,98025.81
2019-02-11T05:47:17.798Z,98026.89
2019-02-11T05:49:46.509Z,98026.64
2019-02-11T05:52:14.274Z,98036.48
2019-02-11T05:54:42.170Z,98031.94
2019-02-11T05:57:10.100Z,98047.88
2019-02-11T05:59:38.314Z,98056.95
2019-02-11T06:02:06.326Z,98056.95
2019-02-11T06:04:34.909Z,98061.25
2019-02-11T06:07:03.068Z,98080.38
2019-02-11T06:09:31.783Z,98070.28
2019-02-11T06:12:00.204Z,98098.79
2019-02-11T06:14:29.212Z,98098.79
2019-02-11T06:16:58.561Z,98104.11
2019-02-11T06:19:26.457Z,98102.52
2019-02-11T06:21:55.141Z,98111.31
2019-02-11T06:24:25.200Z,98111.31
2019-02-11T06:26:53.796Z,98116.89
2019-02-11T06:29:24.053Z,98124.63
2019-02-11T06:31:51.953Z,98122.45
2019-02-11T06:34:21.180Z,98131.49
2019-02-11T06:36:50.154Z,98141.35
2019-02-11T06:39:18.194Z,98150.14
2019-02-11T06:44:25.133Z,98159.71
2019-02-11T06:46:56.049Z,98169.87
2019-02-11T06:49:25.015Z,98185.31
2019-02-11T06:51:53.947Z,98194.63
2019-02-11T06:57:04.224Z,98204.45
2019-02-11T06:59:31.645Z,98220.19
2019-02-11T07:01:58.852Z,98222.86
2019-02-11T07:04:26.214Z,98241.78
2019-02-11T07:06:55.104Z,98227.94
2019-02-11T07:09:22.645Z,98210.40
2019-02-11T07:11:50.276Z,98276.41
2019-02-11T07:14:17.520Z,98276.41
2019-02-11T07:16:44.754Z,98276.66
2019-02-11T07:19:12.066Z,98285.73
2019-02-11T07:21:39.625Z,98293.19
2019-02-11T07:24:06.830Z,98292.92
2019-02-11T07:26:34.601Z,98298.25
2019-02-11T07:29:02.514Z,98293.98
2019-02-11T07:31:29.763Z,98305.97
2019-02-11T07:33:57.217Z,98319.58
2019-02-11T07:36:24.566Z,98323.56
2019-02-11T07:38:52.761Z,98327.30
2019-02-11T07:41:25.227Z,98344.61
2019-02-11T07:44:01.088Z,98340.39
2019-02-11T07:46:32.819Z,98350.22
2019-02-11T07:49:00.386Z,98352.09
2019-02-11T07:51:48.180Z,98352.08
2019-02-11T07:54:16.661Z,98359.03
2019-02-11T07:56:46.098Z,98363.28
2019-02-11T07:59:15.552Z,98369.92
2019-02-11T08:01:43.332Z,98371.26
2019-02-11T08:04:12.011Z,98370.72
2019-02-11T08:06:40.278Z,98385.37
2019-02-11T08:09:11.037Z,98390.71
2019-02-11T08:11:40.619Z,98404.02
2019-02-11T08:14:10.364Z,98402.95
2019-02-11T08:16:38.360Z,98406.68
2019-02-11T08:19:07.043Z,98410.67
2019-02-11T08:21:34.967Z,98412.55
2019-02-11T08:24:03.204Z,98418.14
2019-02-11T08:26:32.607Z,98422.39
2019-02-11T08:29:01.210Z,98422.39
2019-02-11T08:31:29.558Z,98422.39
2019-02-11T08:33:57.937Z,98425.86
2019-02-11T08:36:26.485Z,98427.72
2019-02-11T08:38:54.809Z,98434.14
2019-02-11T08:41:22.966Z,98437.31
2019-02-11T08:43:51.135Z,98440.52
2019-02-11T08:46:19.522Z,98450.66
2019-02-11T08:48:47.396Z,98451.98
2019-02-11T08:51:15.899Z,98456.24
2019-02-11T08:53:43.758Z,98462.38
2019-02-11T08:56:12.388Z,98469.04
2019-02-11T08:58:40.998Z,98470.39
2019-02-11T09:01:09.989Z,98463.44
2019-02-11T09:03:38.308Z,98463.44
2019-02-11T09:06:06.890Z,98478.09
2019-02-11T09:08:34.639Z,98478.11
2019-02-11T09:11:02.652Z,98482.63
2019-02-11T09:13:30.899Z,98493.55
2019-02-11T09:15:59.054Z,98493.55
2019-02-11T09:18:27.146Z,98491.17
2019-02-11T09:20:55.364Z,98492.22
2019-02-11T09:23:23.521Z,98508.50
2019-02-11T09:25:51.417Z,98512.48
2019-02-11T09:28:19.441Z,98516.50
2019-02-11T09:30:47.577Z,98529.28
2019-02-11T09:33:17.229Z,98538.09
2019-02-11T09:35:45.545Z,98548.47
2019-02-11T09:38:14.138Z,98547.97
2019-02-11T09:40:43.110Z,98555.97
2019-02-11T09:43:11.031Z,98562.90
2019-02-11T09:45:39.406Z,98560.77
2019-02-11T09:48:07.446Z,98556.52
2019-02-11T09:50:41.558Z,98543.95
2019-02-11T09:53:09.697Z,98562.39
2019-02-11T09:55:38.071Z,98578.66
2019-02-11T09:58:07.689Z,98571.19
2019-02-11T10:00:36.667Z,98579.18
2019-02-11T10:03:04.888Z,98586.40
2019-02-11T10:05:34.036Z,98586.66
2019-02-11T10:08:03.049Z,98604.25
2019-02-11T10:10:31.270Z,98604.25
2019-02-11T10:12:59.474Z,98618.41
2019-02-11T10:15:28.795Z,98618.41
2019-02-11T10:17:57.056Z,98631.48
2019-02-11T10:20:25.473Z,98636.54
2019-02-11T10:22:54.947Z,98636.79
2019-02-11T10:25:25.600Z,98644.27
2019-02-11T10:27:57.982Z,98651.21
2019-02-11T10:30:26.305Z,98655.99
2019-02-11T10:32:54.977Z,98662.95
2019-02-11T10:35:22.978Z,98659.47
2019-02-11T10:37:51.770Z,98659.47
2019-02-11T10:40:21.426Z,98678.44
2019-02-11T10:42:49.619Z,98688.29
2019-02-11T10:45:17.831Z,98680.55
2019-02-11T10:47:46.111Z,98689.36
2019-02-11T10:50:14.497Z,98703.52
2019-02-11T10:52:42.542Z,98702.97
2019-02-11T10:55:12.317Z,98704.84
2019-02-11T10:57:40.716Z,98715.25
2019-02-11T11:00:12.599Z,98714.45
2019-02-11T11:02:40.462Z,98719.52
2019-02-11T11:05:10.175Z,98713.91
2019-02-11T11:07:38.919Z,98720.31
2019-02-11T11:10:11.760Z,98720.59
2019-02-11T11:12:40.111Z,98729.40
2019-02-11T11:15:08.533Z,98733.67
2019-02-11T11:17:36.572Z,98737.92
2019-02-11T11:20:05.206Z,98739.27
2019-02-11T11:22:33.304Z,98743.53
2019-02-11T11:25:01.231Z,98735.00
2019-02-11T11:27:29.227Z,98740.06
2019-02-11T11:29:57.168Z,98750.75
2019-02-11T11:32:25.550Z,98756.34
2019-02-11T11:34:54.166Z,98753.16
2019-02-11T11:37:22.806Z,98754.48
2019-02-11T11:39:51.094Z,98759.03
2019-02-11T11:42:19.902Z,98766.52
2019-02-11T11:44:48.703Z,98766.23
2019-02-11T11:47:16.989Z,98770.23
2019-02-11T11:49:45.524Z,98778.78
2019-02-11T11:52:13.790Z,98787.34
2019-02-11T11:54:42.951Z,98793.20
2019-02-11T11:57:11.484Z,98794.02
2019-02-11T11:59:39.511Z,98800.95
2019-02-11T12:02:07.782Z,98800.95
2019-02-11T12:04:35.707Z,98802.25
2019-02-11T12:07:03.956Z,98814.30
2019-02-11T12:09:32.209Z,98780.89
2019-02-11T12:12:00.970Z,98780.89
2019-02-11T12:14:30.761Z,98809.72
2019-02-11T12:17:02.814Z,98804.13
2019-02-11T12:19:30.334Z,98803.86
2019-02-11T12:22:00.167Z,98805.48
2019-02-11T12:24:28.087Z,98808.67
2019-02-11T12:26:56.135Z,98811.60
2019-02-11T12:29:24.148Z,98807.59
2019-02-11T12:31:52.166Z,98807.86
2019-02-11T12:34:20.937Z,98811.59
2019-02-11T12:36:49.159Z,98809.20
2019-02-11T12:39:17.202Z,98820.16
2019-02-11T12:41:45.293Z,98818.28
2019-02-11T12:44:13.879Z,98815.86
2019-02-11T12:46:41.803Z,98815.34
2019-02-11T12:49:09.987Z,98824.16
2019-02-11T12:51:38.207Z,98827.89
2019-02-11T12:54:07.107Z,98832.19
2019-02-11T12:56:35.358Z,98823.36
2019-02-11T12:59:03.578Z,98821.23
2019-02-11T13:01:32.067Z,98818.83
2019-02-11T13:04:00.420Z,98818.83
2019-02-11T13:06:28.902Z,98837.23
2019-02-11T13:08:56.888Z,98836.69
2019-02-11T13:11:26.038Z,98840.17
2019-02-11T13:13:54.925Z,98844.70
2019-02-11T13:16:25.112Z,98830.84
2019-02-11T13:18:53.430Z,98841.24
2019-02-11T13:21:21.851Z,98848.20
2019-02-11T13:23:49.742Z,98846.03
2019-02-11T13:26:17.888Z,98857.78
2019-02-11T13:28:45.898Z,98858.05
2019-02-11T13:31:13.838Z,98854.59
2019-02-11T13:33:44.042Z,98848.20
2019-02-11T13:36:11.999Z,98865.30
2019-02-11T13:38:39.954Z,98866.36
2019-02-11T13:41:08.590Z,98875.73
2019-02-11T13:43:36.653Z,98875.73
2019-02-11T13:46:05.342Z,98889.34
2019-02-11T13:48:35.034Z,98889.34
2019-02-11T13:51:03.125Z,98891.72
2019-02-11T13:53:31.490Z,98890.67
2019-02-11T13:55:59.710Z,98905.36
2019-02-11T13:58:28.942Z,98904.55
2019-02-11T14:00:57.153Z,98904.02
2019-02-11T14:03:25.119Z,98890.13
2019-02-11T14:05:54.285Z,98908.88
2019-02-11T14:08:23.832Z,98913.63
2019-02-11T14:10:51.836Z,98919.53
2019-02-11T14:13:20.125Z,98923.56
2019-02-11T14:15:48.405Z,98923.04
2019-02-11T14:18:16.575Z,98931.83
2019-02-11T14:20:49.585Z,98940.39
2019-02-11T14:23:15.367Z,98949.42
2019-02-11T14:25:47.232Z,98947.80
2019-02-11T14:28:15.556Z,98963.03
2019-02-11T14:30:43.383Z,98976.12
2019-02-11T14:33:11.615Z,98973.70
2019-02-11T14:35:39.693Z,98977.16
2019-02-11T14:38:07.599Z,98988.09
2019-02-11T14:40:35.664Z,98986.50
2019-02-11T14:43:03.508Z,98989.69
2019-02-11T14:45:31.714Z,98992.36
2019-02-11T14:47:59.857Z,98991.02
2019-02-11T14:50:29.106Z,99008.89
2019-02-11T14:52:57.233Z,99000.63
2019-02-11T14:55:26.286Z,99005.97
2019-02-11T14:57:54.810Z,99008.38
2019-02-11T15:00:22.958Z,99006.75
2019-02-11T15:05:18.497Z,99012.08
2019-02-11T15:07:47.015Z,99006.44
2019-02-11T15:10:15.657Z,99013.12
2019-02-11T15:12:44.073Z,99012.59
2019-02-11T15:15:12.514Z,99018.75
2019-02-11T15:17:41.438Z,99015.78
2019-02-11T15:20:11.949Z,99024.60
2019-02-11T15:22:39.810Z,99031.80
2019-02-11T15:25:10.923Z,99033.95
2019-02-11T15:27:39.826Z,99043.08
2019-02-11T15:30:11.220Z,99045.70
2019-02-11T15:32:39.992Z,99045.96
2019-02-11T15:35:08.290Z,99050.78
2019-02-11T15:37:36.442Z,99058.53
2019-02-11T15:40:07.272Z,99061.20
2019-02-11T15:42:36.720Z,99066.75
2019-02-11T15:45:06.033Z,99065.98
2019-02-11T15:47:34.529Z,99072.91
2019-02-11T15:50:02.898Z,99083.58
2019-02-11T15:52:30.793Z,99092.61
2019-02-11T15:54:59.417Z,99093.64
2019-02-11T15:57:28.337Z,99107.52
2019-02-11T15:59:56.244Z,99112.05
2019-02-11T16:02:24.030Z,99108.05
2019-02-11T16:04:52.050Z,99113.39
2019-02-11T16:07:19.873Z,99113.12
2019-02-11T16:09:48.473Z,99119.80
2019-02-11T16:12:16.986Z,99122.99
2019-02-11T16:14:45.113Z,99132.32
2019-02-11T16:17:13.191Z,99130.47
2019-02-11T16:19:41.455Z,99144.08
2019-02-11T16:22:09.299Z,99143.55
2019-02-11T16:24:37.973Z,99145.66
2019-02-11T16:27:07.007Z,99145.66
2019-02-11T16:29:35.376Z,99158.75
2019-02-11T16:32:03.481Z,99157.14
2019-02-11T16:34:31.983Z,99148.84
2019-02-11T16:36:59.748Z,99150.16
2019-02-11T16:39:28.348Z,99165.10
2019-02-11T16:41:56.837Z,99170.17
2019-02-11T16:44:24.790Z,99173.59
2019-02-11T16:46:53.180Z,99179.48
2019-02-11T16:49:21.046Z,99183.50
2019-02-11T16:51:48.993Z,99196.53
2019-02-11T16:54:17.426Z,99198.16
2019-02-11T16:56:45.410Z,99199.69
2019-02-11T16:59:13.370Z,99184.26
2019-02-11T17:01:43.005Z,99193.86
2019-02-11T17:04:11.140Z,99179.66
2019-02-11T17:07:53.758Z,99198.10
2019-02-11T17:10:21.634Z,99220.22
2019-02-11T17:12:49.012Z,99217.55
2019-02-11T17:15:16.961Z,99217.55
2019-02-11T17:17:44.507Z,99221.05
2019-02-11T17:20:13.399Z,99222.67
2019-02-11T17:22:40.595Z,99223.68
2019-02-11T17:25:08.639Z,99230.63
2019-02-11T17:27:36.188Z,99232.75
2019-02-11T17:30:04.221Z,99222.98
2019-02-11T17:32:31.487Z,99222.98
2019-02-11T17:34:59.066Z,99239.13
2019-02-11T17:37:26.812Z,99240.75
2019-02-11T17:39:54.436Z,99236.02
2019-02-11T17:42:21.777Z,99241.61
2019-02-11T17:44:49.627Z,99246.63
2019-02-11T17:47:17.609Z,99243.14
2019-02-11T17:49:45.854Z,99243.14
2019-02-11T17:52:14.830Z,99237.79
2019-02-11T17:54:42.824Z,99252.77
2019-02-11T17:57:10.165Z,99252.77
2019-02-11T17:59:38.148Z,99254.63
2019-02-11T18:02:11.113Z,99266.91
2019-02-11T18:04:38.848Z,99282.14
2019-02-11T18:07:06.147Z,99294.25
2019-02-11T18:09:34.215Z,99296.92
2019-02-11T18:12:02.225Z,99302.53
2019-02-11T18:14:29.479Z,99304.20
2019-02-11T18:16:57.328Z,99313.77
2019-02-11T18:19:26.349Z,99321.19
2019-02-11T18:22:50.427Z,99326.70
2019-02-11T18:25:17.648Z,99327.22
2019-02-11T18:27:45.314Z,99326.22
2019-02-11T18:30:15.267Z,99324.64
2019-02-11T18:32:44.265Z,99341.44
2019-02-11T18:35:12.497Z,99337.44
2019-02-11T18:37:42.220Z,99350.59
2019-02-11T18:40:12.519Z,99350.59
2019-02-11T18:42:40.962Z,99353.02
2019-02-11T18:45:13.849Z,99352.69
2019-02-11T18:47:41.905Z,99359.42
2019-02-11T18:50:11.906Z,99368.68
2019-02-11T18:52:40.391Z,99374.78
2019-02-11T18:55:09.769Z,99379.61
2019-02-11T18:57:38.001Z,99383.36
2019-02-11T19:00:11.850Z,99385.71
2019-02-11T19:02:43.107Z,99393.22
2019-02-11T19:05:14.549Z,99390.44
2019-02-11T19:07:46.929Z,99409.23
2019-02-11T19:10:17.216Z,99409.23
2019-02-11T19:12:46.477Z,99409.31
2019-02-11T19:15:16.588Z,99409.38
2019-02-11T19:17:48.114Z,99419.28
2019-02-11T19:20:19.285Z,99418.77
2019-02-11T19:22:50.624Z,99418.77
2019-02-11T19:25:21.996Z,99428.87
2019-02-11T19:27:53.102Z,99434.33
2019-02-11T19:30:23.433Z,99428.36
2019-02-11T19:32:53.532Z,99428.36
2019-02-11T19:35:26.542Z,99433.12
2019-02-11T19:38:24.139Z,99444.05
2019-02-11T19:40:53.863Z,99451.79
2019-02-11T19:43:23.180Z,99451.79
2019-02-11T19:45:52.426Z,99448.50
2019-02-11T19:48:23.153Z,99448.14
2019-02-11T19:50:52.994Z,99466.10
2019-02-11T19:53:24.226Z,99474.66
2019-02-11T19:55:55.315Z,99474.66
2019-02-11T19:58:25.551Z,99484.60
2019-02-11T20:00:55.285Z,99484.60
2019-02-11T20:03:24.996Z,99502.89
2019-02-11T20:05:54.513Z,99502.89
2019-02-11T20:08:24.056Z,99512.24
2019-02-11T20:10:53.046Z,99521.61
2019-02-11T20:13:23.294Z,99514.64
2019-02-11T20:15:52.066Z,99519.93
2019-02-11T20:18:20.746Z,99526.33
2019-02-11T20:20:51.597Z,99522.59
2019-02-11T20:23:21.883Z,99521.95
2019-02-11T20:25:52.335Z,99543.91
2019-02-11T20:28:22.767Z,99543.91
2019-02-11T20:30:52.261Z,99553.23
2019-02-11T20:33:24.350Z,99553.23
2019-02-11T20:35:54.784Z,99550.31
2019-02-11T20:38:25.158Z,99564.16
2019-02-11T20:40:55.532Z,99564.16
2019-02-11T20:43:26.576Z,99559.00
2019-02-11T20:45:58.489Z,99575.32
2019-02-11T20:48:28.918Z,99563.82
2019-02-11T20:50:58.801Z,99578.62
2019-02-11T20:53:30.381Z,99583.36
2019-02-11T20:56:02.206Z,99588.67
2019-02-11T20:58:32.759Z,99588.67
2019-02-11T21:01:04.665Z,99592.95
2019-02-11T21:03:34.414Z,99595.34
2019-02-11T21:06:03.968Z,99591.25
2019-02-11T21:08:35.888Z,99587.46
2019-02-11T21:11:06.770Z,99587.46
2019-02-11T21:13:36.132Z,99608.57
2019-02-11T21:16:11.874Z,99607.56
2019-02-11T21:18:42.236Z,99607.56
2019-02-11T21:21:13.855Z,99613.64
2019-02-11T21:23:45.525Z,99613.64
2019-02-11T21:26:17.171Z,99619.00
2019-02-11T21:28:47.733Z,99622.43
2019-02-11T21:31:18.343Z,99617.88
2019-02-11T21:33:48.683Z,99619.22
2019-02-11T21:36:20.221Z,99614.19
2019-02-11T21:38:51.360Z,99615.03
2019-02-11T21:41:22.840Z,99617.64
2019-02-11T21:43:53.183Z,99608.81
2019-02-11T21:46:24.497Z,99607.51
2019-02-11T21:48:55.369Z,99607.51
2019-02-11T21:51:27.095Z,99605.33
2019-02-11T21:53:57.500Z,99600.50
2019-02-11T21:56:28.570Z,99592.92
2019-02-11T21:58:59.404Z,99593.80
2019-02-11T22:01:30.582Z,99600.94
2019-02-11T22:04:01.487Z,99596.59
2019-02-11T22:06:31.646Z,99596.59
2019-02-11T22:09:01.956Z,99599.63
2019-02-11T22:11:33.372Z,99608.96
2019-02-11T22:14:04.446Z,99608.96
2019-02-11T22:16:34.521Z,99615.12
2019-02-11T22:19:05.975Z,99631.92
2019-02-11T22:21:37.770Z,99631.92
2019-02-11T22:24:09.288Z,99636.02
2019-02-11T22:26:39.647Z,99636.02
2019-02-11T22:29:10.900Z,99638.05
2019-02-11T22:31:41.129Z,99640.42
2019-02-11T22:34:13.354Z,99653.22
2019-02-11T22:36:44.024Z,99646.27
2019-02-11T22:39:15.191Z,99647.34
2019-02-11T22:41:44.554Z,99661.38
2019-02-11T22:44:13.429Z,99661.38
2019-02-11T22:46:43.997Z,99661.72
2019-02-11T22:49:20.762Z,99666.48
2019-02-11T22:51:50.638Z,99672.20
2019-02-11T22:54:21.874Z,99672.20
2019-02-11T22:56:54.609Z,99683.97
2019-02-11T22:59:25.520Z,99683.97
2019-02-11T23:01:56.945Z,99702.72
2019-02-11T23:04:28.148Z,99699.74
2019-02-11T23:06:59.890Z,99701.59
2019-02-11T23:09:30.248Z,99701.59
2019-02-11T23:12:00.630Z,99710.48
2019-02-11T23:14:32.770Z,99726.57
2019-02-11T23:17:04.716Z,99731.05
2019-02-11T23:19:36.084Z,99728.00
2019-02-11T23:22:09.419Z,99734.67
2019-02-11T23:24:42.818Z,99734.67
2019-02-11T23:27:15.773Z,99735.94
2019-02-11T23:29:47.283Z,99726.39
2019-02-11T23:32:18.087Z,99730.44
2019-02-11T23:34:49.573Z,99730.44
2019-02-11T23:37:21.230Z,99727.45
2019-02-11T23:39:52.148Z,99727.45
2019-02-11T23:42:24.327Z,99734.36
2019-02-11T23:44:55.209Z,99739.66
2019-02-11T23:47:25.913Z,99739.66
2019-02-11T23:49:55.738Z,99746.61
2019-02-11T23:52:25.725Z,99735.61
2019-02-11T23:54:56.033Z,99752.78
2019-02-11T23:57:28.206Z,99741.61
